createdAt,value
2018-12-24T00:01:54.012Z,4.10
2018-12-24T00:04:25.066Z,4.50
2018-12-24T00:06:56.227Z,4.37
2018-12-24T00:09:27.400Z,4.63
2018-12-24T00:12:06.814Z,4.33
2018-12-24T00:14:31.264Z,4.13
2018-12-24T00:17:02.673Z,4.30
2018-12-24T00:19:35.322Z,4.72
2018-12-24T00:22:08.047Z,4.87
2018-12-24T00:24:39.124Z,4.10
2018-12-24T00:27:10.226Z,4.60
2018-12-24T00:29:41.140Z,4.53
2018-12-24T00:32:12.276Z,4.70
2018-12-24T00:34:43.284Z,4.90
2018-12-24T00:37:14.127Z,4.30
2018-12-24T00:39:45.039Z,5.33
2018-12-24T00:42:16.469Z,4.73
2018-12-24T00:44:47.310Z,4.30
2018-12-24T00:49:55.189Z,4.87
2018-12-24T00:55:02.080Z,4.70
2018-12-24T00:57:33.027Z,4.87
2018-12-24T01:00:04.096Z,4.83
2018-12-24T01:02:35.210Z,4.30
2018-12-24T01:07:42.173Z,4.17
2018-12-24T01:10:13.309Z,4.63
2018-12-24T01:12:44.426Z,4.87
2018-12-24T01:15:15.298Z,4.23
2018-12-24T01:17:46.268Z,4.30
2018-12-24T01:20:17.138Z,5.17
2018-12-24T01:22:48.047Z,4.23
2018-12-24T01:25:19.307Z,4.10
2018-12-24T01:27:50.255Z,4.93
2018-12-24T01:30:21.401Z,4.53
2018-12-24T01:32:52.300Z,4.00
2018-12-24T01:35:23.205Z,4.10
2018-12-24T01:37:54.217Z,4.20
2018-12-24T01:40:25.094Z,4.20
2018-12-24T01:42:56.390Z,4.27
2018-12-24T01:45:27.312Z,3.93
2018-12-24T01:47:58.214Z,3.70
2018-12-24T01:50:29.323Z,3.62
2018-12-24T01:53:00.503Z,3.63
2018-12-24T01:58:08.102Z,3.60
2018-12-24T02:00:39.121Z,3.23
2018-12-24T02:03:10.095Z,3.60
2018-12-24T02:05:41.012Z,3.83
2018-12-24T02:10:48.108Z,3.37
2018-12-24T02:13:19.325Z,3.17
2018-12-24T02:15:50.386Z,3.40
2018-12-24T02:18:21.307Z,3.47
2018-12-24T02:20:52.348Z,3.80
2018-12-24T02:23:23.223Z,3.93
2018-12-24T02:25:54.104Z,4.00
2018-12-24T02:28:25.418Z,4.07
2018-12-24T02:31:34.911Z,4.00
2018-12-24T02:34:06.270Z,4.45
2018-12-24T02:36:37.256Z,4.50
2018-12-24T02:39:09.359Z,5.30
2018-12-24T02:41:40.202Z,6.43
2018-12-24T02:44:11.400Z,6.70
2018-12-24T02:46:42.292Z,7.37
2018-12-24T02:49:13.192Z,6.70
2018-12-24T02:51:44.190Z,7.27
2018-12-24T02:54:15.080Z,6.90
2018-12-24T02:56:46.077Z,7.03
2018-12-24T02:59:35.670Z,6.30
2018-12-24T03:02:07.097Z,7.25
2018-12-24T03:04:38.021Z,8.67
2018-12-24T03:07:09.081Z,7.03
2018-12-24T03:09:40.115Z,6.80
2018-12-24T03:12:11.060Z,5.90
2018-12-24T03:14:42.098Z,5.50
2018-12-24T03:17:13.330Z,5.12
2018-12-24T03:19:44.202Z,5.13
2018-12-24T03:22:15.524Z,5.17
2018-12-24T03:24:46.366Z,5.23
2018-12-24T03:27:17.391Z,5.70
2018-12-24T03:29:48.292Z,6.27
2018-12-24T03:32:19.161Z,5.20
2018-12-24T03:34:50.367Z,5.93
2018-12-24T03:37:21.359Z,5.20
2018-12-24T03:42:29.206Z,4.97
2018-12-24T03:45:00.296Z,5.10
2018-12-24T03:47:31.246Z,5.13
2018-12-24T03:50:02.152Z,4.73
2018-12-24T03:52:33.204Z,5.40
2018-12-24T03:55:04.065Z,6.70
2018-12-24T03:57:35.207Z,5.87
2018-12-24T04:00:06.428Z,5.70
2018-12-24T04:02:37.389Z,5.97
2018-12-24T04:05:08.349Z,6.33
2018-12-24T04:07:39.214Z,6.07
2018-12-24T04:10:10.492Z,6.50
2018-12-24T04:12:41.456Z,6.87
2018-12-24T04:15:12.412Z,6.53
2018-12-24T04:17:43.304Z,7.10
2018-12-24T04:20:14.284Z,7.47
2018-12-24T04:22:45.147Z,6.70
2018-12-24T04:27:52.500Z,7.07
2018-12-24T04:30:23.337Z,8.40
2018-12-24T04:32:54.281Z,7.53
2018-12-24T04:35:25.194Z,7.17
2018-12-24T04:40:32.678Z,7.97
2018-12-24T04:43:03.840Z,8.20
2018-12-24T04:45:35.087Z,9.33
2018-12-24T04:48:06.318Z,9.30
2018-12-24T04:50:37.340Z,10.43
2018-12-24T04:53:08.481Z,10.20
2018-12-24T04:55:39.470Z,10.40
2018-12-24T04:58:10.405Z,11.73
2018-12-24T05:00:41.821Z,11.33
2018-12-24T05:03:13.120Z,11.73
2018-12-24T05:05:44.017Z,11.57
2018-12-24T05:08:15.313Z,11.28
2018-12-24T05:10:46.361Z,11.20
2018-12-24T05:13:17.341Z,12.57
2018-12-24T05:15:48.606Z,11.00
2018-12-24T05:18:19.860Z,11.33
2018-12-24T05:20:51.077Z,12.00
2018-12-24T05:23:22.140Z,10.80
2018-12-24T05:25:53.008Z,10.20
2018-12-24T05:31:00.082Z,9.17
2018-12-24T05:33:31.040Z,9.30
2018-12-24T05:36:02.044Z,9.03
2018-12-24T05:38:33.031Z,10.83
2018-12-24T05:41:04.277Z,9.23
2018-12-24T05:43:35.616Z,9.13
2018-12-24T05:46:06.498Z,9.23
2018-12-24T05:48:37.459Z,8.97
2018-12-24T05:51:08.324Z,10.03
2018-12-24T05:53:39.433Z,10.70
2018-12-24T05:56:10.286Z,11.13
2018-12-24T05:58:41.290Z,11.30
2018-12-24T06:01:12.218Z,11.57
2018-12-24T06:04:01.789Z,10.80
2018-12-24T06:06:33.127Z,11.85
2018-12-24T06:09:04.705Z,11.53
2018-12-24T06:11:35.905Z,11.22
2018-12-24T06:14:07.089Z,12.53
2018-12-24T06:16:38.399Z,12.77
2018-12-24T06:19:09.320Z,13.57
2018-12-24T06:21:40.326Z,14.30
2018-12-24T06:24:11.192Z,14.53
2018-12-24T06:26:42.202Z,14.97
2018-12-24T06:29:31.739Z,15.33
2018-12-24T06:34:40.019Z,15.33
2018-12-24T06:37:12.606Z,16.55
2018-12-24T06:39:43.512Z,17.27
2018-12-24T06:42:14.419Z,17.50
2018-12-24T06:44:45.429Z,19.30
2018-12-24T06:47:16.289Z,26.93
2018-12-24T06:49:47.284Z,28.03
2018-12-24T06:52:18.297Z,23.00
2018-12-24T06:54:49.395Z,23.60
2018-12-24T06:57:21.429Z,21.55
2018-12-24T06:59:52.335Z,18.27
2018-12-24T07:02:23.316Z,16.60
2018-12-24T07:04:54.591Z,17.17
2018-12-24T07:07:25.569Z,18.23
2018-12-24T07:09:56.532Z,15.53
2018-12-24T07:12:27.476Z,13.50
2018-12-24T07:17:34.527Z,12.93
2018-12-24T07:20:24.093Z,13.60
2018-12-24T07:22:55.382Z,16.12
2018-12-24T07:25:26.384Z,14.20
2018-12-24T07:27:57.509Z,12.83
2018-12-24T07:30:28.403Z,11.90
2018-12-24T07:35:56.068Z,8.53
2018-12-24T07:38:27.139Z,6.80
2018-12-24T07:40:58.370Z,7.77
2018-12-24T07:43:30.063Z,7.70
2018-12-24T07:46:01.308Z,8.40
2018-12-24T07:48:32.361Z,8.57
2018-12-24T07:51:03.459Z,7.20
2018-12-24T07:53:35.366Z,8.90
2018-12-24T07:58:36.705Z,5.73
2018-12-24T08:01:09.095Z,5.95
2018-12-24T08:03:40.394Z,6.67
2018-12-24T08:06:11.307Z,7.30
2018-12-24T08:08:42.354Z,6.27
2018-12-24T08:11:13.308Z,6.83
2018-12-24T08:13:44.476Z,6.53
2018-12-24T08:16:15.503Z,5.77
2018-12-24T08:18:46.434Z,5.07
2018-12-24T08:21:17.300Z,5.53
2018-12-24T08:23:48.419Z,5.70
2018-12-24T08:26:19.667Z,6.30
2018-12-24T08:28:50.998Z,6.75
2018-12-24T08:31:22.095Z,6.43
2018-12-24T08:33:53.017Z,6.63
2018-12-24T08:36:24.272Z,5.93
2018-12-24T08:38:55.214Z,5.10
2018-12-24T08:41:26.285Z,5.27
2018-12-24T08:43:57.377Z,4.60
2018-12-24T08:46:28.451Z,4.70
2018-12-24T08:48:59.399Z,5.23
2018-12-24T08:51:30.348Z,4.90
2018-12-24T08:54:01.343Z,4.87
2018-12-24T08:56:32.277Z,5.53
2018-12-24T08:59:03.338Z,6.87
2018-12-24T09:01:34.305Z,5.70
2018-12-24T09:04:05.250Z,5.83
2018-12-24T09:06:36.436Z,5.97
2018-12-24T09:09:09.168Z,5.10
2018-12-24T09:11:40.556Z,4.70
2018-12-24T09:14:50.567Z,6.50
2018-12-24T09:20:02.395Z,8.63
2018-12-24T09:22:33.400Z,9.23
2018-12-24T09:25:04.828Z,10.97
2018-12-24T09:27:54.830Z,6.03
2018-12-24T09:30:26.485Z,4.00
2018-12-24T09:32:57.569Z,4.13
2018-12-24T09:35:28.616Z,4.13
2018-12-24T09:38:38.371Z,3.07
2018-12-24T09:41:28.254Z,3.23
2018-12-24T09:46:36.478Z,3.67
2018-12-24T09:54:20.594Z,4.47
2018-12-24T09:56:51.572Z,4.57
2018-12-24T09:59:22.617Z,4.90
2018-12-24T10:01:53.632Z,5.37
2018-12-24T10:04:33.253Z,2.90
2018-12-24T10:10:21.467Z,3.90
2018-12-24T10:18:50.988Z,3.12
2018-12-24T10:27:13.161Z,3.05
2018-12-24T10:29:44.464Z,2.27
2018-12-24T10:32:15.800Z,2.17
2018-12-24T10:37:40.289Z,2.50
2018-12-24T10:40:18.921Z,2.97
2018-12-24T10:42:51.070Z,2.40
2018-12-24T10:48:36.786Z,2.33
2018-12-24T10:51:08.006Z,3.73
2018-12-24T10:53:39.151Z,3.43
2018-12-24T10:56:10.186Z,2.50
2018-12-24T11:01:48.431Z,3.58
2018-12-24T11:04:19.407Z,2.97
2018-12-24T11:06:50.332Z,3.50
2018-12-24T11:09:21.258Z,4.47
2018-12-24T11:11:52.675Z,4.50
2018-12-24T11:14:43.376Z,4.55
2018-12-24T11:17:14.379Z,3.47
2018-12-24T11:19:45.677Z,4.20
2018-12-24T11:22:17.046Z,5.25
2018-12-24T11:24:48.170Z,5.53
2018-12-24T11:27:19.170Z,3.83
2018-12-24T11:29:50.237Z,3.80
2018-12-24T11:32:21.191Z,4.93
2018-12-24T11:34:52.606Z,3.60
2018-12-24T11:37:23.507Z,3.13
2018-12-24T11:42:31.318Z,3.70
2018-12-24T11:45:02.443Z,3.23
2018-12-24T11:47:33.370Z,3.67
2018-12-24T11:50:04.471Z,3.30
2018-12-24T11:52:35.488Z,3.30
2018-12-24T11:55:06.502Z,3.23
2018-12-24T12:00:36.277Z,3.77
2018-12-24T12:03:07.283Z,3.47
2018-12-24T12:05:38.290Z,3.40
2018-12-24T12:08:09.498Z,3.13
2018-12-24T12:10:40.475Z,3.00
2018-12-24T12:13:31.644Z,3.53
2018-12-24T12:16:03.133Z,2.92
2018-12-24T12:18:34.215Z,3.13
2018-12-24T12:21:05.613Z,2.60
2018-12-24T12:23:55.241Z,3.67
2018-12-24T12:26:26.326Z,3.03
2018-12-24T12:29:36.760Z,2.97
2018-12-24T12:32:09.105Z,3.10
2018-12-24T12:34:48.271Z,5.03
2018-12-24T12:37:19.249Z,3.83
2018-12-24T12:39:50.245Z,4.43
2018-12-24T12:42:21.356Z,3.47
2018-12-24T12:44:52.422Z,4.67
2018-12-24T12:47:23.390Z,3.50
2018-12-24T12:49:54.448Z,3.93
2018-12-24T12:52:25.336Z,4.10
2018-12-24T12:57:52.411Z,3.50
2018-12-24T13:00:23.649Z,4.00
2018-12-24T13:02:54.615Z,3.73
2018-12-24T13:05:25.763Z,3.40
2018-12-24T13:07:57.192Z,3.37
2018-12-24T13:10:28.763Z,26.37
2018-12-24T13:15:59.681Z,6.10
2018-12-24T13:18:31.962Z,4.23
2018-12-24T13:23:40.517Z,7.00
2018-12-24T13:26:12.051Z,5.20
2018-12-24T13:28:43.565Z,6.93
2018-12-24T13:31:14.746Z,4.33
2018-12-24T13:33:46.116Z,5.70
2018-12-24T13:36:16.970Z,9.80
2018-12-24T13:38:48.829Z,5.50
2018-12-24T13:41:20.148Z,6.70
2018-12-24T13:43:52.341Z,5.53
2018-12-24T13:46:23.846Z,5.97
2018-12-24T13:48:55.968Z,6.00
2018-12-24T13:51:27.317Z,4.00
2018-12-24T13:53:58.225Z,4.20
2018-12-24T13:56:29.250Z,4.60
2018-12-24T13:59:18.914Z,4.27
2018-12-24T14:01:50.090Z,5.67
2018-12-24T14:04:21.238Z,7.57
2018-12-24T14:06:52.228Z,7.67
2018-12-24T14:09:23.181Z,8.23
2018-12-24T14:11:54.552Z,4.03
2018-12-24T14:14:25.697Z,4.37
2018-12-24T14:16:56.594Z,4.45
2018-12-24T14:19:27.601Z,4.13
2018-12-24T14:21:58.857Z,3.92
2018-12-24T14:24:30.219Z,3.70
2018-12-24T14:27:01.166Z,3.90
2018-12-24T14:29:33.470Z,4.03
2018-12-24T14:32:04.549Z,3.87
2018-12-24T14:34:35.450Z,4.17
2018-12-24T14:37:06.554Z,5.50
2018-12-24T14:39:37.427Z,5.53
2018-12-24T14:42:08.307Z,5.67
2018-12-24T14:44:39.236Z,5.73
2018-12-24T14:47:10.249Z,6.63
2018-12-24T14:49:41.426Z,5.30
2018-12-24T14:52:12.319Z,6.53
2018-12-24T14:54:43.245Z,6.00
2018-12-24T14:57:14.430Z,5.87
2018-12-24T14:59:45.665Z,5.93
2018-12-24T15:02:17.617Z,5.85
2018-12-24T15:04:50.026Z,5.50
2018-12-24T15:07:21.310Z,6.60
2018-12-24T15:09:52.724Z,12.30
2018-12-24T15:15:39.871Z,7.43
2018-12-24T15:18:11.106Z,8.43
2018-12-24T15:20:42.057Z,8.73
2018-12-24T15:23:13.424Z,10.63
2018-12-24T15:25:44.303Z,9.33
2018-12-24T15:28:15.437Z,9.80
2018-12-24T15:30:46.333Z,9.10
2018-12-24T15:33:17.329Z,7.43
2018-12-24T15:35:48.298Z,6.37
2018-12-24T15:38:19.174Z,7.13
2018-12-24T15:40:50.255Z,8.53
2018-12-24T15:43:21.221Z,15.77
2018-12-24T15:45:52.411Z,18.47
2018-12-24T15:48:23.471Z,9.87
2018-12-24T15:50:54.453Z,6.37
2018-12-24T15:53:25.448Z,7.80
2018-12-24T15:55:56.406Z,6.27
2018-12-24T15:58:27.366Z,5.60
2018-12-24T16:00:58.675Z,6.07
2018-12-24T16:03:36.768Z,5.60
2018-12-24T16:06:03.080Z,5.57
2018-12-24T16:08:34.406Z,4.75
2018-12-24T16:11:05.287Z,5.33
2018-12-24T16:13:36.191Z,4.77
2018-12-24T16:16:07.127Z,4.67
2018-12-24T16:18:38.034Z,4.23
2018-12-24T16:21:09.385Z,4.50
2018-12-24T16:23:40.328Z,4.53
2018-12-24T16:26:11.632Z,3.80
2018-12-24T16:28:42.939Z,4.55
2018-12-24T16:31:14.097Z,4.43
2018-12-24T16:33:45.722Z,4.30
2018-12-24T16:36:16.881Z,3.92
2018-12-24T16:38:48.132Z,4.70
2018-12-24T16:41:19.140Z,4.67
2018-12-24T16:43:50.159Z,4.17
2018-12-24T16:46:21.548Z,4.00
2018-12-24T16:48:52.657Z,3.97
2018-12-24T16:51:24.970Z,3.70
2018-12-24T16:53:56.239Z,3.85
2018-12-24T16:56:27.159Z,4.55
2018-12-24T17:01:35.212Z,4.23
2018-12-24T17:07:02.392Z,4.00
2018-12-24T17:09:33.727Z,4.00
2018-12-24T17:12:04.720Z,4.20
2018-12-24T17:14:54.640Z,4.92
2018-12-24T17:17:25.899Z,4.22
2018-12-24T17:19:57.096Z,3.87
2018-12-24T17:23:08.083Z,4.73
2018-12-24T17:28:55.704Z,4.78
2018-12-24T17:31:26.946Z,4.40
2018-12-24T17:36:35.066Z,4.00
2018-12-24T17:39:08.151Z,4.40
2018-12-24T17:41:39.146Z,3.80
2018-12-24T17:44:10.378Z,4.37
2018-12-24T17:46:41.294Z,4.40
2018-12-24T17:49:12.468Z,4.13
2018-12-24T17:51:43.504Z,4.50
2018-12-24T17:54:14.442Z,3.70
2018-12-24T17:56:46.450Z,4.15
2018-12-24T17:59:17.403Z,4.03
2018-12-24T18:01:48.377Z,3.70
2018-12-24T18:04:19.422Z,3.60
2018-12-24T18:06:50.373Z,3.60
2018-12-24T18:09:21.444Z,3.20
2018-12-24T18:11:52.808Z,3.57
2018-12-24T18:14:24.451Z,3.27
2018-12-24T18:16:55.709Z,3.20
2018-12-24T18:19:26.894Z,3.30
2018-12-24T18:21:57.982Z,3.40
2018-12-24T18:25:07.633Z,3.00
2018-12-24T18:30:15.141Z,3.33
2018-12-24T18:35:23.109Z,3.00
2018-12-24T18:37:53.996Z,3.60
2018-12-24T18:40:25.281Z,3.90
2018-12-24T18:42:56.337Z,4.20
2018-12-24T18:45:27.341Z,3.60
2018-12-24T18:47:58.212Z,6.73
2018-12-24T18:50:29.403Z,21.80
2018-12-24T18:53:00.848Z,4.10
2018-12-24T18:55:32.081Z,4.57
2018-12-24T18:58:03.245Z,4.83
2018-12-24T19:00:34.137Z,3.33
2018-12-24T19:03:05.263Z,3.10
2018-12-24T19:05:36.464Z,3.97
2018-12-24T19:08:07.381Z,3.57
2018-12-24T19:10:38.443Z,3.13
2018-12-24T19:13:09.374Z,3.93
2018-12-24T19:15:40.315Z,3.80
2018-12-24T19:18:11.245Z,4.00
2018-12-24T19:20:42.294Z,3.90
2018-12-24T19:23:13.353Z,3.97
2018-12-24T19:25:44.340Z,4.47
2018-12-24T19:28:15.201Z,4.17
2018-12-24T19:30:46.748Z,4.50
2018-12-24T19:33:19.013Z,4.83
2018-12-24T19:35:50.479Z,4.67
2018-12-24T19:38:21.447Z,4.80
2018-12-24T19:40:52.337Z,4.20
2018-12-24T19:43:23.321Z,5.60
2018-12-24T19:45:54.769Z,5.10
2018-12-24T19:57:12.001Z,5.43
2018-12-24T19:59:44.602Z,5.77
2018-12-24T20:02:50.978Z,4.57
2018-12-24T20:04:52.443Z,5.63
2018-12-24T20:07:23.980Z,5.13
2018-12-24T20:09:56.132Z,4.27
2018-12-24T20:12:27.752Z,4.10
2018-12-24T20:20:40.187Z,3.98
2018-12-24T20:25:53.414Z,2.77
2018-12-24T20:28:26.885Z,4.10
2018-12-24T20:31:38.959Z,4.83
2018-12-24T20:34:10.285Z,4.60
2018-12-24T20:36:41.564Z,3.37
2018-12-24T20:39:12.726Z,3.87
2018-12-24T20:41:43.897Z,3.50
2018-12-24T20:47:13.290Z,3.77
2018-12-24T20:49:46.831Z,3.80
2018-12-24T20:52:19.063Z,4.13
2018-12-24T20:54:51.211Z,3.67
2018-12-24T20:57:23.904Z,3.60
2018-12-24T21:00:02.560Z,3.60
2018-12-24T21:02:35.088Z,3.50
2018-12-24T21:05:08.140Z,3.70
2018-12-24T21:07:40.045Z,4.07
2018-12-24T21:10:11.834Z,4.03
2018-12-24T21:23:33.393Z,4.60
2018-12-24T21:26:04.283Z,5.03
2018-12-24T21:28:35.451Z,4.57
2018-12-24T21:34:16.532Z,4.97
2018-12-24T21:36:47.694Z,5.90
2018-12-24T21:39:19.065Z,4.78
2018-12-24T21:42:09.327Z,4.17
2018-12-24T21:44:58.893Z,4.10
2018-12-24T21:47:30.480Z,4.17
2018-12-24T21:50:01.672Z,4.40
2018-12-24T21:55:25.803Z,4.43
2018-12-24T21:57:57.385Z,4.75
2018-12-24T22:00:28.796Z,4.90
2018-12-24T22:03:00.467Z,4.28
2018-12-24T22:05:31.648Z,4.90
2018-12-24T22:08:03.940Z,4.20
2018-12-24T22:16:24.331Z,4.60
2018-12-24T22:18:56.960Z,4.83
2018-12-24T22:21:30.359Z,4.60
2018-12-24T22:24:02.540Z,5.70
2018-12-24T22:26:34.796Z,5.03
2018-12-24T22:29:07.919Z,4.37
2018-12-24T22:31:40.923Z,5.17
2018-12-24T22:34:12.750Z,4.70
2018-12-24T22:36:45.637Z,5.10
2018-12-24T22:39:17.250Z,5.27
2018-12-24T22:41:49.641Z,5.27
2018-12-24T22:47:17.561Z,5.13
2018-12-24T22:50:04.898Z,4.50
2018-12-24T22:52:39.853Z,4.60
2018-12-24T22:55:11.123Z,5.17
2018-12-24T22:57:42.535Z,5.27
2018-12-24T23:03:09.353Z,5.33
2018-12-24T23:05:40.213Z,4.80
2018-12-24T23:08:11.590Z,5.03
2018-12-24T23:10:43.196Z,4.55
2018-12-24T23:13:14.773Z,5.20
2018-12-24T23:15:46.066Z,5.08
2018-12-24T23:18:17.285Z,4.20
2018-12-24T23:20:48.453Z,4.30
2018-12-24T23:23:19.457Z,4.37
2018-12-24T23:25:50.316Z,4.63
2018-12-24T23:28:21.292Z,4.47
2018-12-24T23:30:52.244Z,4.57
2018-12-24T23:33:23.163Z,4.07
2018-12-24T23:35:54.103Z,4.70
2018-12-24T23:38:25.019Z,4.80
2018-12-24T23:40:57.590Z,4.60
2018-12-24T23:43:28.446Z,4.90
2018-12-24T23:46:00.559Z,4.70
2018-12-24T23:48:31.522Z,4.87
2018-12-24T23:51:02.394Z,4.37
2018-12-24T23:56:09.333Z,4.80
2018-12-24T23:58:40.732Z,4.17
